sensor_id;sensor_type;location;lat;lon;timestamp;noise_LAeq;noise_LA_min;noise_LA_max;noise_LA01;noise_LA95
66589;Laerm;53447;49.272;11.070;2022-09-09T00:04:30;48.41;33.51;65.33;;
66589;Laerm;53447;49.272;11.070;2022-09-09T00:09:25;39.98;33.86;44.16;;
66589;Laerm;53447;49.272;11.070;2022-09-09T00:11:52;38.95;33.86;42.04;;
66589;Laerm;53447;49.272;11.070;2022-09-09T00:17:07;40.45;32.81;47.74;;
66589;Laerm;53447;49.272;11.070;2022-09-09T00:27:04;38.93;33.19;42.22;;
66589;Laerm;53447;49.272;11.070;2022-09-09T00:29:35;40.81;33.54;44.04;;
66589;Laerm;53447;49.272;11.070;2022-09-09T00:32:13;39.73;34.70;42.40;;
66589;Laerm;53447;49.272;11.070;2022-09-09T00:34:42;38.75;33.54;42.69;;
66589;Laerm;53447;49.272;11.070;2022-09-09T00:37:09;41.86;36.02;45.39;;
66589;Laerm;53447;49.272;11.070;2022-09-09T00:39:37;39.72;34.70;43.15;;
66589;Laerm;53447;49.272;11.070;2022-09-09T00:44:36;39.11;33.19;56.80;;
66589;Laerm;53447;49.272;11.070;2022-09-09T00:52:27;42.22;35.41;44.41;;
66589;Laerm;53447;49.272;11.070;2022-09-09T00:55:16;40.47;33.54;44.01;;
66589;Laerm;53447;49.272;11.070;2022-09-09T00:57:43;38.46;32.40;41.38;;
66589;Laerm;53447;49.272;11.070;2022-09-09T01:03:08;39.27;33.54;42.97;;
66589;Laerm;53447;49.272;11.070;2022-09-09T01:05:45;40.40;34.95;43.67;;
66589;Laerm;53447;49.272;11.070;2022-09-09T01:09:00;42.26;34.16;51.72;;
66589;Laerm;53447;49.272;11.070;2022-09-09T01:10:56;42.77;37.84;50.26;;
66589;Laerm;53447;49.272;11.070;2022-09-09T01:13:27;39.03;34.16;41.94;;
66589;Laerm;53447;49.272;11.070;2022-09-09T01:15:55;38.80;34.44;42.49;;
66589;Laerm;53447;49.272;11.070;2022-09-09T01:18:22;39.50;34.16;42.93;;
66589;Laerm;53447;49.272;11.070;2022-09-09T01:26:24;38.63;33.86;42.13;;
66589;Laerm;53447;49.272;11.070;2022-09-09T01:28:51;39.08;33.86;42.27;;
66589;Laerm;53447;49.272;11.070;2022-09-09T01:31:27;39.49;34.95;43.26;;
66589;Laerm;53447;49.272;11.070;2022-09-09T01:33:53;40.49;35.41;43.47;;
66589;Laerm;53447;49.272;11.070;2022-09-09T01:37:02;40.91;34.95;43.83;;
66589;Laerm;53447;49.272;11.070;2022-09-09T01:39:07;40.03;34.16;43.26;;
66589;Laerm;53447;49.272;11.070;2022-09-09T01:41:32;39.34;33.86;42.77;;
66589;Laerm;53447;49.272;11.070;2022-09-09T01:43:57;38.79;33.54;42.65;;
66589;Laerm;53447;49.272;11.070;2022-09-09T01:46:23;39.24;34.70;41.99;;
66589;Laerm;53447;49.272;11.070;2022-09-09T01:48:50;38.97;33.19;42.27;;
66589;Laerm;53447;49.272;11.070;2022-09-09T01:51:16;39.13;33.86;47.16;;
66589;Laerm;53447;49.272;11.070;2022-09-09T01:53:41;39.54;34.09;43.12;;
66589;Laerm;53447;49.272;11.070;2022-09-09T02:01:17;41.81;34.70;46.31;;
66589;Laerm;53447;49.272;11.070;2022-09-09T02:03:52;39.88;33.86;43.12;;
66589;Laerm;53447;49.272;11.070;2022-09-09T02:08:45;41.43;35.19;48.94;;
66589;Laerm;53447;49.272;11.070;2022-09-09T02:11:19;43.65;35.62;52.13;;
66589;Laerm;53447;49.272;11.070;2022-09-09T02:13:45;39.34;34.44;42.47;;
66589;Laerm;53447;49.272;11.070;2022-09-09T02:16:16;39.56;34.60;43.15;;
66589;Laerm;53447;49.272;11.070;2022-09-09T02:21:28;42.02;34.95;47.49;;
66589;Laerm;53447;49.272;11.070;2022-09-09T02:23:55;40.38;34.16;43.57;;
66589;Laerm;53447;49.272;11.070;2022-09-09T02:26:22;38.85;34.44;41.59;;
66589;Laerm;53447;49.272;11.070;2022-09-09T02:28:49;41.29;35.41;45.16;;
66589;Laerm;53447;49.272;11.070;2022-09-09T02:31:16;40.07;35.82;42.89;;
66589;Laerm;53447;49.272;11.070;2022-09-09T02:33:44;39.27;34.70;42.36;;
66589;Laerm;53447;49.272;11.070;2022-09-09T02:36:11;39.77;33.86;42.73;;
66589;Laerm;53447;49.272;11.070;2022-09-09T02:38:40;39.28;35.19;42.77;;
66589;Laerm;53447;49.272;11.070;2022-09-09T02:41:07;40.63;34.95;48.29;;
66589;Laerm;53447;49.272;11.070;2022-09-09T02:43:33;42.23;36.55;44.63;;
66589;Laerm;53447;49.272;11.070;2022-09-09T02:46:13;39.94;34.44;42.53;;
66589;Laerm;53447;49.272;11.070;2022-09-09T02:48:47;39.58;34.95;43.04;;
66589;Laerm;53447;49.272;11.070;2022-09-09T02:56:42;40.54;35.62;43.23;;
66589;Laerm;53447;49.272;11.070;2022-09-09T02:59:11;40.57;35.82;45.28;;
66589;Laerm;53447;49.272;11.070;2022-09-09T03:01:36;40.18;36.20;45.12;;
66589;Laerm;53447;49.272;11.070;2022-09-09T03:04:02;48.18;36.87;67.27;;
66589;Laerm;53447;49.272;11.070;2022-09-09T03:06:30;44.69;40.59;53.89;;
66589;Laerm;53447;49.272;11.070;2022-09-09T03:08:55;41.78;37.58;43.61;;
66589;Laerm;53447;49.272;11.070;2022-09-09T03:11:22;41.71;37.85;43.98;;
66589;Laerm;53447;49.272;11.070;2022-09-09T03:13:47;41.93;37.02;44.60;;
66589;Laerm;53447;49.272;11.070;2022-09-09T03:16:13;41.67;38.20;43.67;;
66589;Laerm;53447;49.272;11.070;2022-09-09T03:18:40;41.10;37.02;43.19;;
66589;Laerm;53447;49.272;11.070;2022-09-09T03:21:05;40.84;36.71;43.44;;
66589;Laerm;53447;49.272;11.070;2022-09-09T03:23:30;40.95;36.71;43.70;;
66589;Laerm;53447;49.272;11.070;2022-09-09T03:25:55;40.77;36.52;43.40;;
66589;Laerm;53447;49.272;11.070;2022-09-09T03:28:23;41.30;37.45;43.19;;
66589;Laerm;53447;49.272;11.070;2022-09-09T03:30:50;41.18;37.71;43.54;;
66589;Laerm;53447;49.272;11.070;2022-09-09T03:33:15;41.32;36.87;44.88;;
66589;Laerm;53447;49.272;11.070;2022-09-09T03:35:44;49.76;39.72;67.32;;
66589;Laerm;53447;49.272;11.070;2022-09-09T03:38:12;41.69;37.73;52.78;;
66589;Laerm;53447;49.272;11.070;2022-09-09T03:40:37;41.63;37.58;63.61;;
66589;Laerm;53447;49.272;11.070;2022-09-09T03:43:03;41.90;38.08;44.90;;
66589;Laerm;53447;49.272;11.070;2022-09-09T03:45:28;41.26;37.96;43.77;;
66589;Laerm;53447;49.272;11.070;2022-09-09T03:47:53;41.47;38.08;43.89;;
66589;Laerm;53447;49.272;11.070;2022-09-09T03:50:19;41.47;37.45;43.89;;
66589;Laerm;53447;49.272;11.070;2022-09-09T03:52:44;41.00;37.17;43.33;;
66589;Laerm;53447;49.272;11.070;2022-09-09T03:55:09;41.49;38.08;50.27;;
66589;Laerm;53447;49.272;11.070;2022-09-09T03:57:35;50.60;37.31;69.55;;
66589;Laerm;53447;49.272;11.070;2022-09-09T04:00:04;41.12;37.84;48.76;;
66589;Laerm;53447;49.272;11.070;2022-09-09T04:02:30;54.01;40.18;71.66;;
66589;Laerm;53447;49.272;11.070;2022-09-09T04:04:55;52.95;38.42;74.68;;
66589;Laerm;53447;49.272;11.070;2022-09-09T04:07:21;41.81;37.84;45.94;;
66589;Laerm;53447;49.272;11.070;2022-09-09T04:09:46;41.32;36.55;55.70;;
66589;Laerm;53447;49.272;11.070;2022-09-09T04:12:11;41.55;37.58;66.42;;
66589;Laerm;53447;49.272;11.070;2022-09-09T04:14:38;41.71;38.08;45.62;;
66589;Laerm;53447;49.272;11.070;2022-09-09T04:17:03;42.70;40.53;46.92;;
66589;Laerm;53447;49.272;11.070;2022-09-09T04:19:31;42.45;40.59;44.78;;
66589;Laerm;53447;49.272;11.070;2022-09-09T04:21:56;42.42;40.59;44.10;;
66589;Laerm;53447;49.272;11.070;2022-09-09T04:24:21;42.29;40.39;46.18;;
66589;Laerm;53447;49.272;11.070;2022-09-09T04:26:47;44.00;40.53;58.18;;
66589;Laerm;53447;49.272;11.070;2022-09-09T04:29:12;42.73;40.53;46.43;;
66589;Laerm;53447;49.272;11.070;2022-09-09T04:31:37;50.04;40.39;68.11;;
66589;Laerm;53447;49.272;11.070;2022-09-09T04:34:06;41.92;39.12;44.65;;
66589;Laerm;53447;49.272;11.070;2022-09-09T04:36:34;41.87;38.93;44.41;;
66589;Laerm;53447;49.272;11.070;2022-09-09T04:39:00;41.36;38.20;49.06;;
66589;Laerm;53447;49.272;11.070;2022-09-09T04:41:26;51.44;38.08;70.21;;
66589;Laerm;53447;49.272;11.070;2022-09-09T04:43:51;52.99;38.63;71.33;;
66589;Laerm;53447;49.272;11.070;2022-09-09T04:46:18;42.02;38.83;51.60;;
66589;Laerm;53447;49.272;11.070;2022-09-09T04:48:43;41.82;39.21;53.71;;
66589;Laerm;53447;49.272;11.070;2022-09-09T04:51:10;51.92;39.72;69.83;;
66589;Laerm;53447;49.272;11.070;2022-09-09T04:53:36;42.80;39.21;52.74;;
66589;Laerm;53447;49.272;11.070;2022-09-09T04:56:03;42.34;39.39;49.37;;
66589;Laerm;53447;49.272;11.070;2022-09-09T04:58:29;42.03;38.63;51.45;;
66589;Laerm;53447;49.272;11.070;2022-09-09T05:00:54;46.68;38.53;63.01;;
66589;Laerm;53447;49.272;11.070;2022-09-09T05:03:19;52.23;39.72;70.42;;
66589;Laerm;53447;49.272;11.070;2022-09-09T05:05:45;49.75;38.73;67.65;;
66589;Laerm;53447;49.272;11.070;2022-09-09T05:08:10;44.15;38.83;60.13;;
66589;Laerm;53447;49.272;11.070;2022-09-09T05:10:37;49.30;39.88;66.78;;
66589;Laerm;53447;49.272;11.070;2022-09-09T05:13:02;42.80;39.56;53.82;;
66589;Laerm;53447;49.272;11.070;2022-09-09T05:15:27;54.21;40.25;72.01;;
66589;Laerm;53447;49.272;11.070;2022-09-09T05:17:56;42.29;40.03;53.89;;
66589;Laerm;53447;49.272;11.070;2022-09-09T05:20:21;51.34;39.21;70.25;;
66589;Laerm;53447;49.272;11.070;2022-09-09T05:22:47;42.04;39.21;51.58;;
66589;Laerm;53447;49.272;11.070;2022-09-09T05:25:12;42.59;39.72;57.58;;
66589;Laerm;53447;49.272;11.070;2022-09-09T05:27:37;52.51;39.48;72.37;;
66589;Laerm;53447;49.272;11.070;2022-09-09T05:30:03;45.66;39.12;60.76;;
66589;Laerm;53447;49.272;11.070;2022-09-09T05:32:29;54.62;38.63;72.13;;
66589;Laerm;53447;49.272;11.070;2022-09-09T05:34:57;47.81;39.21;60.40;;
66589;Laerm;53447;49.272;11.070;2022-09-09T05:37:23;50.75;40.18;67.44;;
66589;Laerm;53447;49.272;11.070;2022-09-09T05:39:48;44.33;39.12;56.88;;
66589;Laerm;53447;49.272;11.070;2022-09-09T05:42:13;42.06;38.93;52.12;;
66589;Laerm;53447;49.272;11.070;2022-09-09T05:44:39;42.24;39.30;57.04;;
66589;Laerm;53447;49.272;11.070;2022-09-09T05:47:04;43.67;40.32;59.32;;
66589;Laerm;53447;49.272;11.070;2022-09-09T05:49:30;42.49;38.31;56.44;;
66589;Laerm;53447;49.272;11.070;2022-09-09T05:51:55;52.41;38.93;70.88;;
66589;Laerm;53447;49.272;11.070;2022-09-09T05:54:20;46.73;40.18;60.05;;
66589;Laerm;53447;49.272;11.070;2022-09-09T05:56:46;42.62;39.72;54.10;;
66589;Laerm;53447;49.272;11.070;2022-09-09T05:59:11;50.00;39.03;68.42;;
66589;Laerm;53447;49.272;11.070;2022-09-09T06:01:37;49.70;38.42;68.29;;
66589;Laerm;53447;49.272;11.070;2022-09-09T06:04:05;43.65;39.56;58.85;;
66589;Laerm;53447;49.272;11.070;2022-09-09T06:06:31;47.47;39.21;63.91;;
66589;Laerm;53447;49.272;11.070;2022-09-09T06:09:02;46.82;40.18;62.15;;
66589;Laerm;53447;49.272;11.070;2022-09-09T06:11:28;53.77;38.53;71.47;;
66589;Laerm;53447;49.272;11.070;2022-09-09T06:13:56;41.79;38.73;52.12;;
66589;Laerm;53447;49.272;11.070;2022-09-09T06:16:22;42.03;39.12;53.09;;
66589;Laerm;53447;49.272;11.070;2022-09-09T06:18:51;45.73;38.08;59.21;;
66589;Laerm;53447;49.272;11.070;2022-09-09T06:21:17;46.03;39.29;62.22;;
66589;Laerm;53447;49.272;11.070;2022-09-09T06:23:43;44.16;38.73;60.13;;
66589;Laerm;53447;49.272;11.070;2022-09-09T06:26:16;52.57;40.25;69.02;;
66589;Laerm;53447;49.272;11.070;2022-09-09T06:28:45;51.09;39.03;74.52;;
66589;Laerm;53447;49.272;11.070;2022-09-09T06:31:11;41.79;37.84;52.45;;
66589;Laerm;53447;49.272;11.070;2022-09-09T06:33:38;42.28;39.12;54.93;;
66589;Laerm;53447;49.272;11.070;2022-09-09T06:36:06;44.06;39.21;64.64;;
66589;Laerm;53447;49.272;11.070;2022-09-09T06:38:32;49.93;39.03;66.59;;
66589;Laerm;53447;49.272;11.070;2022-09-09T06:40:58;49.08;40.39;68.46;;
66589;Laerm;53447;49.272;11.070;2022-09-09T06:43:27;45.83;40.32;64.63;;
66589;Laerm;53447;49.272;11.070;2022-09-09T06:45:56;42.09;39.03;53.19;;
66589;Laerm;53447;49.272;11.070;2022-09-09T06:48:22;44.54;38.73;56.57;;
66589;Laerm;53447;49.272;11.070;2022-09-09T06:50:48;49.01;39.96;64.99;;
66589;Laerm;53447;49.272;11.070;2022-09-09T06:53:17;53.76;40.18;70.90;;
66589;Laerm;53447;49.272;11.070;2022-09-09T06:55:44;52.11;39.12;70.32;;
66589;Laerm;53447;49.272;11.070;2022-09-09T06:58:09;47.16;38.31;69.85;;
66589;Laerm;53447;49.272;11.070;2022-09-09T07:00:35;51.85;37.84;72.80;;
66589;Laerm;53447;49.272;11.070;2022-09-09T07:03:02;62.75;40.32;82.90;;
66589;Laerm;53447;49.272;11.070;2022-09-09T07:05:28;56.19;37.45;74.81;;
66589;Laerm;53447;49.272;11.070;2022-09-09T07:07:53;55.38;39.39;74.05;;
66589;Laerm;53447;49.272;11.070;2022-09-09T07:10:18;45.29;37.96;62.96;;
66589;Laerm;53447;49.272;11.070;2022-09-09T07:12:43;41.72;37.96;56.78;;
66589;Laerm;53447;49.272;11.070;2022-09-09T07:15:09;41.01;37.31;58.87;;
66589;Laerm;53447;49.272;11.070;2022-09-09T07:17:34;40.89;37.02;54.95;;
66589;Laerm;53447;49.272;11.070;2022-09-09T07:20:00;40.67;36.38;52.60;;
66589;Laerm;53447;49.272;11.070;2022-09-09T07:22:27;45.68;37.58;62.95;;
66589;Laerm;53447;49.272;11.070;2022-09-09T07:24:52;51.35;37.58;69.28;;
66589;Laerm;53447;49.272;11.070;2022-09-09T07:27:17;43.59;37.71;65.09;;
66589;Laerm;53447;49.272;11.070;2022-09-09T07:29:42;50.92;38.31;68.29;;
66589;Laerm;53447;49.272;11.070;2022-09-09T07:32:08;49.84;37.84;68.17;;
66589;Laerm;53447;49.272;11.070;2022-09-09T07:34:33;48.33;38.20;71.28;;
66589;Laerm;53447;49.272;11.070;2022-09-09T07:36:58;49.27;37.84;62.24;;
66589;Laerm;53447;49.272;11.070;2022-09-09T07:39:23;45.41;37.96;62.45;;
66589;Laerm;53447;49.272;11.070;2022-09-09T07:41:49;51.43;38.08;69.47;;
66589;Laerm;53447;49.272;11.070;2022-09-09T07:44:18;48.92;37.17;62.16;;
66589;Laerm;53447;49.272;11.070;2022-09-09T07:46:46;52.92;38.08;72.32;;
66589;Laerm;53447;49.272;11.070;2022-09-09T07:49:11;43.13;36.87;60.18;;
66589;Laerm;53447;49.272;11.070;2022-09-09T07:51:43;42.25;36.87;57.02;;
66589;Laerm;53447;49.272;11.070;2022-09-09T07:54:10;52.29;37.96;70.24;;
66589;Laerm;53447;49.272;11.070;2022-09-09T07:56:36;48.03;38.73;64.83;;
66589;Laerm;53447;49.272;11.070;2022-09-09T07:59:02;41.58;36.38;55.84;;
66589;Laerm;53447;49.272;11.070;2022-09-09T08:01:32;40.83;36.20;59.08;;
66589;Laerm;53447;49.272;11.070;2022-09-09T08:04:03;47.09;37.31;74.96;;
66589;Laerm;53447;49.272;11.070;2022-09-09T08:06:29;44.50;36.38;71.49;;
66589;Laerm;53447;49.272;11.070;2022-09-09T08:08:55;48.40;39.80;65.87;;
66589;Laerm;53447;49.272;11.070;2022-09-09T08:11:21;43.80;40.03;58.88;;
66589;Laerm;53447;49.272;11.070;2022-09-09T08:13:48;47.30;39.80;61.09;;
66589;Laerm;53447;49.272;11.070;2022-09-09T08:16:15;52.03;41.15;62.23;;
66589;Laerm;53447;49.272;11.070;2022-09-09T08:18:41;52.96;41.74;59.90;;
66589;Laerm;53447;49.272;11.070;2022-09-09T08:23:31;58.11;41.69;71.20;;
66589;Laerm;53447;49.272;11.070;2022-09-09T08:26:03;56.65;46.70;73.75;;
66589;Laerm;53447;49.272;11.070;2022-09-09T08:28:28;55.86;40.53;67.75;;
66589;Laerm;53447;49.272;11.070;2022-09-09T08:30:53;52.88;40.46;66.97;;
66589;Laerm;53447;49.272;11.070;2022-09-09T08:33:19;49.43;35.62;72.29;;
66589;Laerm;53447;49.272;11.070;2022-09-09T08:35:50;48.67;36.87;60.53;;
66589;Laerm;53447;49.272;11.070;2022-09-09T08:38:17;57.99;44.65;72.02;;
66589;Laerm;53447;49.272;11.070;2022-09-09T08:40:43;56.75;44.47;67.52;;
66589;Laerm;53447;49.272;11.070;2022-09-09T08:43:14;53.51;47.49;63.54;;
66589;Laerm;53447;49.272;11.070;2022-09-09T08:48:55;54.34;37.71;71.47;;
66589;Laerm;53447;49.272;11.070;2022-09-09T08:51:23;40.76;37.02;56.28;;
66589;Laerm;53447;49.272;11.070;2022-09-09T08:53:50;40.53;35.82;50.97;;
66589;Laerm;53447;49.272;11.070;2022-09-09T08:56:18;48.37;35.62;67.87;;
66589;Laerm;53447;49.272;11.070;2022-09-09T08:58:47;48.61;38.31;66.82;;
66589;Laerm;53447;49.272;11.070;2022-09-09T09:01:20;47.13;38.83;72.37;;
66589;Laerm;53447;49.272;11.070;2022-09-09T09:06:39;40.27;35.62;50.71;;
66589;Laerm;53447;49.272;11.070;2022-09-09T09:09:17;46.60;39.21;62.42;;
66589;Laerm;53447;49.272;11.070;2022-09-09T09:11:48;57.52;36.97;76.27;;
66589;Laerm;53447;49.272;11.070;2022-09-09T09:14:22;53.67;39.39;69.51;;
66589;Laerm;53447;49.272;11.070;2022-09-09T09:16:54;46.75;38.93;62.48;;
66589;Laerm;53447;49.272;11.070;2022-09-09T09:19:21;49.57;39.48;68.38;;
66589;Laerm;53447;49.272;11.070;2022-09-09T09:21:57;51.74;41.15;65.77;;
66589;Laerm;53447;49.272;11.070;2022-09-09T09:24:27;52.32;44.52;69.94;;
66589;Laerm;53447;49.272;11.070;2022-09-09T09:26:57;45.71;36.71;58.16;;
66589;Laerm;53447;49.272;11.070;2022-09-09T09:29:26;43.27;37.02;60.78;;
66589;Laerm;53447;49.272;11.070;2022-09-09T09:31:52;50.33;37.31;74.87;;
66589;Laerm;53447;49.272;11.070;2022-09-09T09:34:19;40.22;35.41;60.70;;
66589;Laerm;53447;49.272;11.070;2022-09-09T09:36:45;41.50;35.62;60.61;;
66589;Laerm;53447;49.272;11.070;2022-09-09T09:39:24;41.54;33.86;61.88;;
66589;Laerm;53447;49.272;11.070;2022-09-09T09:41:49;48.21;35.62;66.57;;
66589;Laerm;53447;49.272;11.070;2022-09-09T09:44:26;41.20;36.97;55.86;;
66589;Laerm;53447;49.272;11.070;2022-09-09T09:46:52;40.94;35.62;57.97;;
66589;Laerm;53447;49.272;11.070;2022-09-09T09:49:18;39.32;35.19;44.01;;
66589;Laerm;53447;49.272;11.070;2022-09-09T09:51:43;41.77;34.95;59.79;;
66589;Laerm;53447;49.272;11.070;2022-09-09T09:56:40;51.07;36.87;72.26;;
66589;Laerm;53447;49.272;11.070;2022-09-09T09:59:19;42.80;38.63;54.84;;
66589;Laerm;53447;49.272;11.070;2022-09-09T10:01:44;43.10;37.58;54.60;;
66589;Laerm;53447;49.272;11.070;2022-09-09T10:04:22;43.90;38.20;54.42;;
66589;Laerm;53447;49.272;11.070;2022-09-09T10:06:48;51.21;37.02;72.36;;
66589;Laerm;53447;49.272;11.070;2022-09-09T10:09:24;50.93;36.71;70.01;;
66589;Laerm;53447;49.272;11.070;2022-09-09T10:14:49;48.36;36.38;67.09;;
66589;Laerm;53447;49.272;11.070;2022-09-09T10:19:39;40.85;35.19;50.30;;
66589;Laerm;53447;49.272;11.070;2022-09-09T10:22:22;50.45;35.19;69.17;;
66589;Laerm;53447;49.272;11.070;2022-09-09T10:25:00;50.83;36.20;70.09;;
66589;Laerm;53447;49.272;11.070;2022-09-09T10:30:00;47.53;36.02;65.43;;
66589;Laerm;53447;49.272;11.070;2022-09-09T10:32:36;40.46;36.20;52.44;;
66589;Laerm;53447;49.272;11.070;2022-09-09T10:42:31;48.54;37.58;67.23;;
66589;Laerm;53447;49.272;11.070;2022-09-09T10:45:02;51.29;37.02;68.46;;
66589;Laerm;53447;49.272;11.070;2022-09-09T10:55:11;41.68;36.38;54.93;;
66589;Laerm;53447;49.272;11.070;2022-09-09T11:00:14;41.79;33.54;49.34;;
66589;Laerm;53447;49.272;11.070;2022-09-09T11:02:40;43.71;37.02;65.51;;
66589;Laerm;53447;49.272;11.070;2022-09-09T11:05:10;45.61;34.84;62.16;;
66589;Laerm;53447;49.272;11.070;2022-09-09T11:07:50;42.41;36.71;59.33;;
66589;Laerm;53447;49.272;11.070;2022-09-09T11:12:49;47.85;37.17;65.34;;
66589;Laerm;53447;49.272;11.070;2022-09-09T11:15:22;41.26;36.71;55.54;;
66589;Laerm;53447;49.272;11.070;2022-09-09T11:17:52;54.66;37.84;79.33;;
66589;Laerm;53447;49.272;11.070;2022-09-09T11:20:21;45.52;37.71;60.40;;
66589;Laerm;53447;49.272;11.070;2022-09-09T11:23:05;42.17;36.38;59.57;;
66589;Laerm;53447;49.272;11.070;2022-09-09T11:25:36;50.05;37.02;69.27;;
66589;Laerm;53447;49.272;11.070;2022-09-09T11:33:37;52.35;36.38;70.79;;
66589;Laerm;53447;49.272;11.070;2022-09-09T11:38:47;49.87;37.71;66.90;;
66589;Laerm;53447;49.272;11.070;2022-09-09T11:41:13;42.01;37.10;59.11;;
66589;Laerm;53447;49.272;11.070;2022-09-09T11:43:40;43.33;36.87;55.41;;
66589;Laerm;53447;49.272;11.070;2022-09-09T11:46:06;41.97;38.08;51.04;;
66589;Laerm;53447;49.272;11.070;2022-09-09T11:48:34;45.25;37.45;63.95;;
66589;Laerm;53447;49.272;11.070;2022-09-09T11:51:01;47.80;36.38;67.14;;
66589;Laerm;53447;49.272;11.070;2022-09-09T11:53:28;40.85;36.71;53.46;;
66589;Laerm;53447;49.272;11.070;2022-09-09T11:56:04;40.67;36.55;50.65;;
66589;Laerm;53447;49.272;11.070;2022-09-09T11:58:32;41.49;38.20;54.62;;
66589;Laerm;53447;49.272;11.070;2022-09-09T12:01:01;42.09;37.96;59.54;;
66589;Laerm;53447;49.272;11.070;2022-09-09T12:03:47;41.19;36.87;49.52;;
66589;Laerm;53447;49.272;11.070;2022-09-09T12:06:17;49.59;37.58;68.71;;
66589;Laerm;53447;49.272;11.070;2022-09-09T12:11:23;40.41;36.20;57.91;;
66589;Laerm;53447;49.272;11.070;2022-09-09T12:13:52;40.69;37.31;53.21;;
66589;Laerm;53447;49.272;11.070;2022-09-09T12:16:34;41.88;37.31;56.65;;
66589;Laerm;53447;49.272;11.070;2022-09-09T12:19:18;40.40;35.82;50.34;;
66589;Laerm;53447;49.272;11.070;2022-09-09T12:21:46;49.25;36.02;68.35;;
66589;Laerm;53447;49.272;11.070;2022-09-09T12:24:14;52.75;37.17;72.81;;
66589;Laerm;53447;49.272;11.070;2022-09-09T12:34:40;41.08;37.45;48.27;;
66589;Laerm;53447;49.272;11.070;2022-09-09T12:39:57;54.10;44.78;67.78;;
66589;Laerm;53447;49.272;11.070;2022-09-09T12:42:22;62.48;47.85;77.77;;
66589;Laerm;53447;49.272;11.070;2022-09-09T12:47:16;47.25;40.32;59.08;;
66589;Laerm;53447;49.272;11.070;2022-09-09T12:49:43;56.07;38.93;72.22;;
66589;Laerm;53447;49.272;11.070;2022-09-09T12:54:38;53.84;37.71;73.07;;
66589;Laerm;53447;49.272;11.070;2022-09-09T12:57:10;52.49;37.84;71.26;;
66589;Laerm;53447;49.272;11.070;2022-09-09T12:59:38;52.79;39.56;67.75;;
66589;Laerm;53447;49.272;11.070;2022-09-09T13:04:41;48.19;37.71;65.95;;
66589;Laerm;53447;49.272;11.070;2022-09-09T13:07:07;42.43;39.03;53.60;;
66589;Laerm;53447;49.272;11.070;2022-09-09T13:09:34;50.55;36.20;69.46;;
66589;Laerm;53447;49.272;11.070;2022-09-09T13:12:00;46.42;36.55;61.51;;
66589;Laerm;53447;49.272;11.070;2022-09-09T13:14:29;42.28;38.95;47.34;;
66589;Laerm;53447;49.272;11.070;2022-09-09T13:16:56;42.01;38.53;51.18;;
66589;Laerm;53447;49.272;11.070;2022-09-09T13:19:21;44.57;40.11;60.50;;
66589;Laerm;53447;49.272;11.070;2022-09-09T13:21:47;52.59;36.38;70.67;;
66589;Laerm;53447;49.272;11.070;2022-09-09T13:26:56;40.42;35.62;48.54;;
66589;Laerm;53447;49.272;11.070;2022-09-09T13:29:21;40.38;36.55;45.64;;
66589;Laerm;53447;49.272;11.070;2022-09-09T13:31:46;51.27;38.42;69.80;;
66589;Laerm;53447;49.272;11.070;2022-09-09T13:34:26;44.42;38.31;65.29;;
66589;Laerm;53447;49.272;11.070;2022-09-09T13:36:52;50.94;37.17;71.66;;
66589;Laerm;53447;49.272;11.070;2022-09-09T13:39:19;54.18;39.64;72.67;;
66589;Laerm;53447;49.272;11.070;2022-09-09T13:41:44;56.02;37.58;80.16;;
66589;Laerm;53447;49.272;11.070;2022-09-09T13:44:17;55.96;38.31;77.97;;
66589;Laerm;53447;49.272;11.070;2022-09-09T13:46:45;60.26;40.72;83.64;;
66589;Laerm;53447;49.272;11.070;2022-09-09T13:54:02;63.15;41.21;84.95;;
66589;Laerm;53447;49.272;11.070;2022-09-09T13:56:27;45.77;39.48;64.96;;
66589;Laerm;53447;49.272;11.070;2022-09-09T13:58:53;43.44;39.03;56.40;;
66589;Laerm;53447;49.272;11.070;2022-09-09T14:01:19;43.05;37.31;63.73;;
66589;Laerm;53447;49.272;11.070;2022-09-09T14:03:44;54.10;37.58;72.88;;
66589;Laerm;53447;49.272;11.070;2022-09-09T14:06:10;49.52;38.83;72.83;;
66589;Laerm;53447;49.272;11.070;2022-09-09T14:08:36;52.21;38.31;65.82;;
66589;Laerm;53447;49.272;11.070;2022-09-09T14:11:05;51.74;38.20;70.41;;
66589;Laerm;53447;49.272;11.070;2022-09-09T14:13:30;41.53;38.31;44.47;;
66589;Laerm;53447;49.272;11.070;2022-09-09T14:15:56;43.05;40.18;57.91;;
66589;Laerm;53447;49.272;11.070;2022-09-09T14:18:21;43.44;37.71;59.44;;
66589;Laerm;53447;49.272;11.070;2022-09-09T14:20:48;49.36;39.56;66.24;;
66589;Laerm;53447;49.272;11.070;2022-09-09T14:23:13;50.22;40.11;65.53;;
66589;Laerm;53447;49.272;11.070;2022-09-09T14:25:41;42.59;38.83;50.89;;
66589;Laerm;53447;49.272;11.070;2022-09-09T14:28:08;51.83;39.72;68.79;;
66589;Laerm;53447;49.272;11.070;2022-09-09T14:30:33;50.44;38.73;69.46;;
66589;Laerm;53447;49.272;11.070;2022-09-09T14:32:59;44.97;35.82;67.71;;
66589;Laerm;53447;49.272;11.070;2022-09-09T14:35:25;42.38;37.45;60.83;;
66589;Laerm;53447;49.272;11.070;2022-09-09T14:37:50;41.59;37.31;62.94;;
66589;Laerm;53447;49.272;11.070;2022-09-09T14:40:15;54.73;37.58;72.02;;
66589;Laerm;53447;49.272;11.070;2022-09-09T14:42:41;55.72;38.73;70.40;;
66589;Laerm;53447;49.272;11.070;2022-09-09T14:45:07;45.30;37.96;65.30;;
66589;Laerm;53447;49.272;11.070;2022-09-09T14:47:32;41.83;37.71;60.98;;
66589;Laerm;53447;49.272;11.070;2022-09-09T14:49:57;40.92;36.55;45.90;;
66589;Laerm;53447;49.272;11.070;2022-09-09T14:52:22;46.50;37.73;65.29;;
66589;Laerm;53447;49.272;11.070;2022-09-09T14:54:47;50.26;37.02;70.57;;
66589;Laerm;53447;49.272;11.070;2022-09-09T14:57:13;42.33;37.58;57.04;;
66589;Laerm;53447;49.272;11.070;2022-09-09T14:59:38;40.52;35.82;48.33;;
66589;Laerm;53447;49.272;11.070;2022-09-09T15:02:04;41.30;35.82;62.73;;
66589;Laerm;53447;49.272;11.070;2022-09-09T15:04:30;43.64;36.71;56.01;;
66589;Laerm;53447;49.272;11.070;2022-09-09T15:06:55;40.24;36.20;50.86;;
66589;Laerm;53447;49.272;11.070;2022-09-09T15:09:20;43.07;35.62;57.18;;
66589;Laerm;53447;49.272;11.070;2022-09-09T15:11:45;50.85;39.39;69.63;;
66589;Laerm;53447;49.272;11.070;2022-09-09T15:14:11;49.58;38.93;68.77;;
66589;Laerm;53447;49.272;11.070;2022-09-09T15:16:37;41.57;37.17;60.05;;
66589;Laerm;53447;49.272;11.070;2022-09-09T15:19:03;45.37;38.42;63.04;;
66589;Laerm;53447;49.272;11.070;2022-09-09T15:21:29;46.17;38.83;60.62;;
66589;Laerm;53447;49.272;11.070;2022-09-09T15:23:56;52.27;37.45;71.55;;
66589;Laerm;53447;49.272;11.070;2022-09-09T15:26:21;43.68;38.20;63.14;;
66589;Laerm;53447;49.272;11.070;2022-09-09T15:28:47;43.39;36.38;70.52;;
66589;Laerm;53447;49.272;11.070;2022-09-09T15:31:14;44.21;37.02;66.19;;
66589;Laerm;53447;49.272;11.070;2022-09-09T15:33:39;41.78;37.45;62.39;;
66589;Laerm;53447;49.272;11.070;2022-09-09T15:36:24;53.38;38.42;69.52;;
66589;Laerm;53447;49.272;11.070;2022-09-09T15:38:50;49.63;36.97;76.27;;